createdAt,value
2023-06-24T00:00:23.961Z,100525.00
2023-06-24T00:02:57.245Z,100513.00
2023-06-24T00:05:30.321Z,100524.00
2023-06-24T00:08:04.750Z,100521.00
2023-06-24T00:10:37.875Z,100510.00
2023-06-24T00:13:11.670Z,100511.00
2023-06-24T00:15:53.096Z,100497.00
2023-06-24T00:18:27.119Z,100493.00
2023-06-24T00:21:04.621Z,100501.00
2023-06-24T00:23:40.429Z,100498.00
2023-06-24T00:26:13.470Z,100498.00
2023-06-24T00:28:46.381Z,100490.00
2023-06-24T00:31:19.327Z,100499.00
2023-06-24T00:33:52.769Z,100494.00
2023-06-24T00:36:25.708Z,100491.00
2023-06-24T00:38:59.844Z,100490.00
2023-06-24T00:41:32.907Z,100494.00
2023-06-24T00:44:06.054Z,100493.00
2023-06-24T00:46:43.606Z,100483.00
2023-06-24T00:49:17.569Z,100485.00
2023-06-24T00:51:54.609Z,100484.00
2023-06-24T00:54:28.569Z,100482.00
2023-06-24T00:57:02.800Z,100484.00
2023-06-24T00:59:35.832Z,100481.00
2023-06-24T01:02:08.803Z,100479.00
2023-06-24T01:04:41.875Z,100468.00
2023-06-24T01:07:15.703Z,100460.00
2023-06-24T01:09:48.579Z,100463.00
2023-06-24T01:12:21.639Z,100464.00
2023-06-24T01:14:55.008Z,100459.00
2023-06-24T01:17:29.791Z,100464.00
2023-06-24T01:20:17.076Z,100458.00
2023-06-24T01:23:10.783Z,100450.00
2023-06-24T01:25:57.920Z,100461.00
2023-06-24T01:28:47.972Z,100450.00
2023-06-24T01:31:32.980Z,100443.00
2023-06-24T01:34:24.348Z,100445.00
2023-06-24T01:37:17.599Z,100439.00
2023-06-24T01:40:08.232Z,100461.00
2023-06-24T01:42:43.034Z,100451.00
2023-06-24T01:45:26.170Z,100452.00
2023-06-24T01:48:00.942Z,100459.00
2023-06-24T01:50:35.689Z,100452.00
2023-06-24T01:53:10.519Z,100466.00
2023-06-24T01:55:45.203Z,100448.00
2023-06-24T01:58:19.804Z,100452.00
2023-06-24T02:00:54.935Z,100448.00
2023-06-24T02:03:28.910Z,100446.00
2023-06-24T02:06:03.811Z,100448.00
2023-06-24T02:08:38.801Z,100450.00
2023-06-24T02:11:13.116Z,100461.00
2023-06-24T02:13:47.680Z,100451.00
2023-06-24T02:16:21.904Z,100462.00
2023-06-24T02:18:55.898Z,100455.00
2023-06-24T02:21:31.536Z,100462.00
2023-06-24T02:24:05.414Z,100464.00
2023-06-24T02:26:40.087Z,100462.00
2023-06-24T02:29:14.619Z,100471.00
2023-06-24T02:31:47.258Z,100475.00
2023-06-24T02:34:20.159Z,100460.00
2023-06-24T02:36:52.830Z,100459.00
2023-06-24T02:39:25.958Z,100466.00
2023-06-24T02:41:59.090Z,100460.00
2023-06-24T02:44:31.897Z,100468.00
2023-06-24T02:47:06.122Z,100459.00
2023-06-24T02:49:40.526Z,100455.00
2023-06-24T02:52:14.236Z,100449.00
2023-06-24T02:54:47.548Z,100456.00
2023-06-24T02:57:22.066Z,100457.00
2023-06-24T02:59:55.046Z,100470.00
2023-06-24T03:02:27.927Z,100464.00
2023-06-24T03:05:01.260Z,100467.00
2023-06-24T03:07:35.962Z,100478.00
2023-06-24T03:10:13.736Z,100466.00
2023-06-24T03:12:47.658Z,100474.00
2023-06-24T03:15:21.656Z,100473.00
2023-06-24T03:17:55.628Z,100478.00
2023-06-24T03:20:28.721Z,100483.00
2023-06-24T03:23:01.535Z,100476.00
2023-06-24T03:25:34.618Z,100478.00
2023-06-24T03:28:09.127Z,100466.00
2023-06-24T03:30:42.042Z,100454.00
2023-06-24T03:33:16.127Z,100455.00
2023-06-24T03:35:48.902Z,100464.00
2023-06-24T03:38:21.743Z,100466.00
2023-06-24T03:40:54.626Z,100476.00
2023-06-24T03:43:27.415Z,100477.00
2023-06-24T03:46:04.443Z,100476.00
2023-06-24T03:48:37.393Z,100471.00
2023-06-24T03:51:10.388Z,100488.00
2023-06-24T03:53:43.412Z,100479.00
2023-06-24T03:56:16.350Z,100489.00
2023-06-24T03:58:49.218Z,100476.00
2023-06-24T04:01:22.255Z,100469.00
2023-06-24T04:03:56.283Z,100468.00
2023-06-24T04:06:29.472Z,100465.00
2023-06-24T04:09:02.328Z,100466.00
2023-06-24T04:11:35.276Z,100462.00
2023-06-24T04:14:09.653Z,100463.00
2023-06-24T04:16:43.348Z,100472.00
2023-06-24T04:21:58.499Z,100460.00
2023-06-24T04:24:31.312Z,100468.00
2023-06-24T04:27:04.024Z,100468.00
2023-06-24T04:29:37.428Z,100473.00
2023-06-24T04:32:10.730Z,100470.00
2023-06-24T04:34:43.573Z,100471.00
2023-06-24T04:37:16.469Z,100476.00
2023-06-24T04:39:49.827Z,100469.00
2023-06-24T04:42:22.651Z,100475.00
2023-06-24T04:44:55.646Z,100466.00
2023-06-24T04:47:28.722Z,100473.00
2023-06-24T04:50:04.842Z,100470.00
2023-06-24T04:52:37.792Z,100473.00
2023-06-24T04:55:12.371Z,100466.00
2023-06-24T04:57:45.408Z,100471.00
2023-06-24T05:00:18.781Z,100467.00
2023-06-24T05:02:51.811Z,100480.00
2023-06-24T05:05:24.840Z,100476.00
2023-06-24T05:07:57.710Z,100476.00
2023-06-24T05:10:30.493Z,100480.00
2023-06-24T05:13:03.640Z,100470.00
2023-06-24T05:15:36.749Z,100484.00
2023-06-24T05:18:09.848Z,100494.00
2023-06-24T05:20:43.007Z,100486.00
2023-06-24T05:23:16.357Z,100494.00
2023-06-24T05:25:49.389Z,100498.00
2023-06-24T05:28:22.402Z,100505.00
2023-06-24T05:30:59.310Z,100503.00
2023-06-24T05:33:32.142Z,100500.00
2023-06-24T05:36:04.889Z,100501.00
2023-06-24T05:38:37.752Z,100497.00
2023-06-24T05:41:10.566Z,100504.00
2023-06-24T05:43:43.525Z,100505.00
2023-06-24T05:46:16.375Z,100496.00
2023-06-24T05:48:49.465Z,100505.00
2023-06-24T05:51:26.772Z,100513.00
2023-06-24T05:53:59.538Z,100524.00
2023-06-24T05:56:32.257Z,100522.00
2023-06-24T05:59:05.203Z,100540.00
2023-06-24T06:01:39.648Z,100542.00
2023-06-24T06:04:12.774Z,100547.00
2023-06-24T06:06:46.109Z,100550.00
2023-06-24T06:09:19.139Z,100554.00
2023-06-24T06:11:52.026Z,100563.00
2023-06-24T06:14:25.348Z,100570.00
2023-06-24T06:16:58.197Z,100559.00
2023-06-24T06:19:35.318Z,100561.00
2023-06-24T06:22:09.232Z,100565.00
2023-06-24T06:24:42.380Z,100562.00
2023-06-24T06:27:18.739Z,100554.00
2023-06-24T06:29:51.404Z,100566.00
2023-06-24T06:32:24.176Z,100563.00
2023-06-24T06:34:57.021Z,100563.00
2023-06-24T06:37:29.909Z,100562.00
2023-06-24T06:40:02.749Z,100568.00
2023-06-24T06:42:44.330Z,100572.00
2023-06-24T06:45:20.351Z,100575.00
2023-06-24T06:47:56.359Z,100572.00
2023-06-24T06:50:29.118Z,100573.00
2023-06-24T06:53:01.908Z,100589.00
2023-06-24T06:55:35.013Z,100581.00
2023-06-24T06:58:08.596Z,100602.00
2023-06-24T07:00:41.441Z,100595.00
2023-06-24T07:03:15.603Z,100594.00
2023-06-24T07:05:49.444Z,100590.00
2023-06-24T07:08:22.052Z,100590.00
2023-06-24T07:10:54.984Z,100587.00
2023-06-24T07:13:28.482Z,100586.00
2023-06-24T07:16:02.034Z,100587.00
2023-06-24T07:18:36.579Z,100582.00
2023-06-24T07:21:09.635Z,100580.00
2023-06-24T07:23:43.211Z,100583.00
2023-06-24T07:26:16.628Z,100598.00
2023-06-24T07:29:00.106Z,100587.00
2023-06-24T07:31:24.013Z,100593.00
2023-06-24T07:33:56.822Z,100595.00
2023-06-24T07:36:29.951Z,100595.00
2023-06-24T07:39:03.075Z,100598.00
2023-06-24T07:41:36.990Z,100601.00
2023-06-24T07:44:10.009Z,100594.00
2023-06-24T07:46:43.043Z,100599.00
2023-06-24T07:49:20.867Z,100597.00
2023-06-24T07:51:53.897Z,100598.00
2023-06-24T07:54:27.064Z,100604.00
2023-06-24T07:57:00.154Z,100607.00
2023-06-24T07:59:33.260Z,100612.00
2023-06-24T08:02:06.136Z,100605.00
2023-06-24T08:04:39.376Z,100601.00
2023-06-24T08:07:12.832Z,100598.00
2023-06-24T08:09:45.913Z,100593.00
2023-06-24T08:12:18.796Z,100598.00
2023-06-24T08:14:56.952Z,100591.00
2023-06-24T08:17:30.049Z,100603.00
2023-06-24T08:20:03.524Z,100595.00
2023-06-24T08:22:36.456Z,100602.00
2023-06-24T08:25:09.914Z,100593.00
2023-06-24T08:27:43.118Z,100591.00
2023-06-24T08:30:17.237Z,100599.00
2023-06-24T08:32:50.288Z,100587.00
2023-06-24T08:35:23.443Z,100592.00
2023-06-24T08:37:56.230Z,100582.00
2023-06-24T08:40:29.150Z,100590.00
2023-06-24T08:43:01.842Z,100580.00
2023-06-24T08:45:35.174Z,100576.00
2023-06-24T08:48:08.866Z,100575.00
2023-06-24T08:50:43.901Z,100576.00
2023-06-24T08:53:17.186Z,100577.00
2023-06-24T08:55:51.618Z,100574.00
2023-06-24T08:58:24.537Z,100575.00
2023-06-24T09:00:57.538Z,100567.00
2023-06-24T09:03:30.816Z,100566.00
2023-06-24T09:06:03.807Z,100564.00
2023-06-24T09:08:37.858Z,100561.00
2023-06-24T09:11:11.945Z,100555.00
2023-06-24T09:13:44.970Z,100558.00
2023-06-24T09:16:19.038Z,100553.00
2023-06-24T09:18:53.111Z,100552.00
2023-06-24T09:21:33.638Z,100544.00
2023-06-24T09:24:06.627Z,100545.00
2023-06-24T09:26:40.053Z,100549.00
2023-06-24T09:29:17.816Z,100553.00
2023-06-24T09:31:55.345Z,100548.00
2023-06-24T09:34:28.310Z,100553.00
2023-06-24T09:37:02.320Z,100555.00
2023-06-24T09:39:37.418Z,100550.00
2023-06-24T09:42:11.155Z,100551.00
2023-06-24T09:44:45.106Z,100564.00
2023-06-24T09:47:18.153Z,100555.00
2023-06-24T09:49:51.211Z,100553.00
2023-06-24T09:52:25.256Z,100549.00
2023-06-24T09:54:59.187Z,100550.00
2023-06-24T09:57:36.367Z,100542.00
2023-06-24T10:00:10.009Z,100539.00
2023-06-24T10:02:43.364Z,100535.00
2023-06-24T10:05:17.167Z,100538.00
2023-06-24T10:07:50.322Z,100539.00
2023-06-24T10:10:23.470Z,100530.00
2023-06-24T10:12:56.280Z,100541.00
2023-06-24T10:15:29.214Z,100530.00
2023-06-24T10:18:15.651Z,100542.00
2023-06-24T10:20:40.275Z,100534.00
2023-06-24T10:23:13.477Z,100537.00
2023-06-24T10:25:56.552Z,100534.00
2023-06-24T10:28:30.127Z,100524.00
2023-06-24T10:31:02.898Z,100531.00
2023-06-24T10:33:35.756Z,100535.00
2023-06-24T10:36:09.580Z,100525.00
2023-06-24T10:38:43.507Z,100524.00
2023-06-24T10:41:21.655Z,100538.00
2023-06-24T10:43:54.673Z,100523.00
2023-06-24T10:46:29.709Z,100534.00
2023-06-24T10:49:02.621Z,100540.00
2023-06-24T10:51:35.661Z,100534.00
2023-06-24T10:54:09.166Z,100538.00
2023-06-24T10:56:41.934Z,100531.00
2023-06-24T10:59:14.812Z,100531.00
2023-06-24T11:02:00.438Z,100530.00
2023-06-24T11:04:33.479Z,100512.00
2023-06-24T11:07:07.301Z,100514.00
2023-06-24T11:09:40.298Z,100513.00
2023-06-24T11:12:14.305Z,100515.00
2023-06-24T11:14:47.351Z,100511.00
2023-06-24T11:17:20.517Z,100524.00
2023-06-24T11:19:53.499Z,100508.00
2023-06-24T11:22:26.561Z,100514.00
2023-06-24T11:25:05.420Z,100519.00
2023-06-24T11:27:38.772Z,100523.00
2023-06-24T11:30:12.915Z,100517.00
2023-06-24T11:32:46.481Z,100522.00
2023-06-24T11:35:19.620Z,100520.00
2023-06-24T11:37:53.005Z,100520.00
2023-06-24T11:40:26.072Z,100529.00
2023-06-24T11:42:58.939Z,100528.00
2023-06-24T11:45:31.920Z,100514.00
2023-06-24T11:48:08.768Z,100518.00
2023-06-24T11:50:41.705Z,100511.00
2023-06-24T11:53:14.486Z,100501.00
2023-06-24T11:55:47.474Z,100510.00
2023-06-24T11:58:22.386Z,100514.00
2023-06-24T12:00:56.491Z,100498.00
2023-06-24T12:03:29.930Z,100492.00
2023-06-24T12:06:02.721Z,100500.00
2023-06-24T12:08:47.319Z,100491.00
2023-06-24T12:11:09.481Z,100504.00
2023-06-24T12:13:42.507Z,100500.00
2023-06-24T12:16:15.344Z,100499.00
2023-06-24T12:18:48.197Z,100502.00
2023-06-24T12:21:21.046Z,100496.00
2023-06-24T12:23:54.028Z,100481.00
2023-06-24T12:26:27.121Z,100495.00
2023-06-24T12:29:04.035Z,100498.00
2023-06-24T12:31:37.109Z,100489.00
2023-06-24T12:34:10.463Z,100482.00
2023-06-24T12:36:43.524Z,100490.00
2023-06-24T12:39:19.782Z,100481.00
2023-06-24T12:41:51.419Z,100476.00
2023-06-24T12:44:24.448Z,100488.00
2023-06-24T12:46:57.439Z,100477.00
2023-06-24T12:49:30.282Z,100481.00
2023-06-24T12:52:03.123Z,100474.00
2023-06-24T12:54:36.171Z,100475.00
2023-06-24T12:57:14.160Z,100478.00
2023-06-24T12:59:43.257Z,100474.00
2023-06-24T13:02:15.976Z,100475.00
2023-06-24T13:04:50.014Z,100471.00
2023-06-24T13:07:22.874Z,100470.00
2023-06-24T13:09:56.155Z,100466.00
2023-06-24T13:12:29.074Z,100464.00
2023-06-24T13:15:01.983Z,100459.00
2023-06-24T13:17:35.605Z,100460.00
2023-06-24T13:20:08.702Z,100457.00
2023-06-24T13:22:41.412Z,100465.00
2023-06-24T13:25:16.712Z,100458.00
2023-06-24T13:27:49.168Z,100451.00
2023-06-24T13:30:22.588Z,100464.00
2023-06-24T13:32:55.954Z,100454.00
2023-06-24T13:35:29.261Z,100439.00
2023-06-24T13:38:02.310Z,100446.00
2023-06-24T13:40:36.162Z,100449.00
2023-06-24T13:43:09.419Z,100442.00
2023-06-24T13:45:42.280Z,100445.00
2023-06-24T13:48:15.099Z,100444.00
2023-06-24T13:50:47.917Z,100452.00
2023-06-24T13:53:20.836Z,100442.00
2023-06-24T13:55:55.888Z,100447.00
2023-06-24T13:58:28.174Z,100438.00
2023-06-24T14:01:01.382Z,100443.00
2023-06-24T14:03:34.081Z,100435.00
2023-06-24T14:06:06.999Z,100428.00
2023-06-24T14:08:40.261Z,100426.00
2023-06-24T14:11:13.233Z,100425.00
2023-06-24T14:13:46.193Z,100429.00
2023-06-24T14:16:19.415Z,100424.00
2023-06-24T14:18:52.653Z,100415.00
2023-06-24T14:21:26.048Z,100429.00
2023-06-24T14:24:04.043Z,100434.00
2023-06-24T14:26:32.980Z,100433.00
2023-06-24T14:29:06.352Z,100423.00
2023-06-24T14:31:39.164Z,100428.00
2023-06-24T14:34:12.174Z,100429.00
2023-06-24T14:36:44.913Z,100424.00
2023-06-24T14:39:20.580Z,100433.00
2023-06-24T14:41:53.347Z,100426.00
2023-06-24T14:44:26.146Z,100426.00
2023-06-24T14:46:59.160Z,100420.00
2023-06-24T14:49:32.013Z,100430.00
2023-06-24T14:52:04.585Z,100422.00
2023-06-24T14:54:37.687Z,100417.00
2023-06-24T14:57:10.860Z,100426.00
2023-06-24T14:59:44.036Z,100414.00
2023-06-24T15:02:17.221Z,100418.00
2023-06-24T15:04:50.513Z,100416.00
2023-06-24T15:07:23.478Z,100412.00
2023-06-24T15:09:56.664Z,100414.00
2023-06-24T15:12:29.832Z,100409.00
2023-06-24T15:15:02.669Z,100413.00
2023-06-24T15:17:37.187Z,100420.00
2023-06-24T15:20:12.434Z,100420.00
2023-06-24T15:22:46.259Z,100432.00
2023-06-24T15:25:19.223Z,100421.00
2023-06-24T15:27:52.199Z,100416.00
2023-06-24T15:30:26.982Z,100418.00
2023-06-24T15:33:02.583Z,100411.00
2023-06-24T15:35:36.666Z,100412.00
2023-06-24T15:38:09.648Z,100408.00
2023-06-24T15:40:46.148Z,100413.00
2023-06-24T15:43:19.004Z,100404.00
2023-06-24T15:45:52.076Z,100415.00
2023-06-24T15:48:24.870Z,100415.00
2023-06-24T15:50:57.640Z,100421.00
2023-06-24T15:53:33.284Z,100425.00
2023-06-24T15:56:05.144Z,100427.00
2023-06-24T15:58:40.485Z,100425.00
2023-06-24T16:01:13.338Z,100428.00
2023-06-24T16:03:46.217Z,100425.00
2023-06-24T16:06:19.390Z,100413.00
2023-06-24T16:08:52.268Z,100408.00
2023-06-24T16:11:25.159Z,100401.00
2023-06-24T16:13:58.094Z,100413.00
2023-06-24T16:16:30.935Z,100412.00
2023-06-24T16:19:04.060Z,100409.00
2023-06-24T16:21:36.900Z,100402.00
2023-06-24T16:24:09.730Z,100408.00
2023-06-24T16:26:51.702Z,100407.00
2023-06-24T16:29:16.239Z,100406.00
2023-06-24T16:31:50.170Z,100417.00
2023-06-24T16:34:25.110Z,100416.00
2023-06-24T16:36:57.484Z,100410.00
2023-06-24T16:39:30.391Z,100410.00
2023-06-24T16:42:03.223Z,100409.00
2023-06-24T16:44:37.425Z,100404.00
2023-06-24T16:47:17.356Z,100408.00
2023-06-24T16:49:53.837Z,100403.00
2023-06-24T16:52:25.412Z,100432.00
2023-06-24T16:54:58.769Z,100438.00
2023-06-24T16:57:31.870Z,100448.00
2023-06-24T17:00:04.683Z,100458.00
2023-06-24T17:02:37.922Z,100442.00
2023-06-24T17:05:11.823Z,100443.00
2023-06-24T17:07:44.801Z,100431.00
2023-06-24T17:10:17.835Z,100430.00
2023-06-24T17:12:50.780Z,100429.00
2023-06-24T17:15:23.962Z,100420.00
2023-06-24T17:17:57.055Z,100409.00
2023-06-24T17:20:29.916Z,100408.00
2023-06-24T17:23:05.265Z,100408.00
2023-06-24T17:25:38.153Z,100410.00
2023-06-24T17:28:11.635Z,100407.00
2023-06-24T17:30:44.897Z,100405.00
2023-06-24T17:33:18.454Z,100413.00
2023-06-24T17:35:51.911Z,100412.00
2023-06-24T17:38:24.933Z,100415.00
2023-06-24T17:40:58.328Z,100421.00
2023-06-24T17:43:31.386Z,100423.00
2023-06-24T17:46:06.698Z,100420.00
2023-06-24T17:48:39.479Z,100433.00
2023-06-24T17:51:12.690Z,100426.00
2023-06-24T17:53:45.799Z,100435.00
2023-06-24T17:56:18.895Z,100435.00
2023-06-24T17:58:52.174Z,100430.00
2023-06-24T18:01:26.343Z,100438.00
2023-06-24T18:03:59.703Z,100429.00
2023-06-24T18:06:34.101Z,100425.00
2023-06-24T18:09:07.980Z,100415.00
2023-06-24T18:11:40.789Z,100430.00
2023-06-24T18:14:13.632Z,100451.00
2023-06-24T18:16:48.241Z,100445.00
2023-06-24T18:19:21.869Z,100439.00
2023-06-24T18:21:54.689Z,100442.00
2023-06-24T18:24:28.177Z,100439.00
2023-06-24T18:27:00.935Z,100438.00
2023-06-24T18:29:33.966Z,100444.00
2023-06-24T18:32:07.364Z,100438.00
2023-06-24T18:34:41.207Z,100444.00
2023-06-24T18:37:14.817Z,100457.00
2023-06-24T18:39:47.894Z,100468.00
2023-06-24T18:42:20.898Z,100471.00
2023-06-24T18:44:53.909Z,100472.00
2023-06-24T18:47:26.942Z,100476.00
2023-06-24T18:49:59.830Z,100476.00
2023-06-24T18:52:32.866Z,100472.00
2023-06-24T18:55:05.780Z,100479.00
2023-06-24T18:57:38.571Z,100491.00
2023-06-24T19:00:12.676Z,100494.00
2023-06-24T19:02:45.670Z,100485.00
2023-06-24T19:05:18.893Z,100493.00
2023-06-24T19:07:52.025Z,100493.00
2023-06-24T19:10:25.507Z,100504.00
2023-06-24T19:12:58.802Z,100498.00
2023-06-24T19:15:31.850Z,100498.00
2023-06-24T19:18:04.741Z,100492.00
2023-06-24T19:20:38.027Z,100494.00
2023-06-24T19:23:11.137Z,100495.00
2023-06-24T19:25:44.332Z,100510.00
2023-06-24T19:28:17.384Z,100499.00
2023-06-24T19:30:50.372Z,100517.00
2023-06-24T19:33:24.335Z,100512.00
2023-06-24T19:35:59.079Z,100513.00
2023-06-24T19:38:32.737Z,100517.00
2023-06-24T19:41:05.468Z,100530.00
2023-06-24T19:43:38.889Z,100527.00
2023-06-24T19:46:12.481Z,100525.00
2023-06-24T19:48:49.761Z,100527.00
2023-06-24T19:51:22.637Z,100531.00
2023-06-24T19:53:55.989Z,100542.00
2023-06-24T19:56:28.876Z,100536.00
2023-06-24T19:59:01.923Z,100549.00
2023-06-24T20:01:34.928Z,100547.00
2023-06-24T20:04:08.872Z,100551.00
2023-06-24T20:06:42.174Z,100550.00
2023-06-24T20:09:15.283Z,100550.00
2023-06-24T20:11:48.243Z,100562.00
2023-06-24T20:14:21.051Z,100560.00
2023-06-24T20:16:53.709Z,100553.00
2023-06-24T20:19:26.558Z,100556.00
2023-06-24T20:21:59.699Z,100556.00
2023-06-24T20:24:32.682Z,100562.00
2023-06-24T20:27:05.859Z,100565.00
2023-06-24T20:29:38.846Z,100575.00
2023-06-24T20:32:12.116Z,100567.00
2023-06-24T20:34:45.118Z,100574.00
2023-06-24T20:37:18.612Z,100561.00
2023-06-24T20:39:54.241Z,100578.00
2023-06-24T20:42:27.280Z,100575.00
2023-06-24T20:45:00.167Z,100577.00
2023-06-24T20:47:33.602Z,100590.00
2023-06-24T20:50:07.270Z,100590.00
2023-06-24T20:52:40.916Z,100601.00
2023-06-24T20:55:14.265Z,100608.00
2023-06-24T20:57:46.955Z,100609.00
2023-06-24T21:00:20.440Z,100612.00
2023-06-24T21:02:53.314Z,100618.00
2023-06-24T21:05:26.376Z,100607.00
2023-06-24T21:07:59.245Z,100608.00
2023-06-24T21:10:32.027Z,100619.00
2023-06-24T21:13:07.610Z,100616.00
2023-06-24T21:15:41.635Z,100622.00
2023-06-24T21:18:14.452Z,100613.00
2023-06-24T21:20:47.497Z,100612.00
2023-06-24T21:23:20.471Z,100628.00
2023-06-24T21:25:55.710Z,100618.00
2023-06-24T21:28:28.685Z,100624.00
2023-06-24T21:31:01.570Z,100630.00
2023-06-24T21:33:34.644Z,100643.00
2023-06-24T21:36:07.777Z,100639.00
2023-06-24T21:38:41.134Z,100642.00
2023-06-24T21:41:14.471Z,100641.00
2023-06-24T21:43:47.590Z,100629.00
2023-06-24T21:46:20.523Z,100642.00
2023-06-24T21:48:53.596Z,100635.00
2023-06-24T21:51:26.602Z,100633.00
2023-06-24T21:53:59.451Z,100635.00
2023-06-24T21:56:32.490Z,100632.00
2023-06-24T21:59:05.503Z,100638.00
2023-06-24T22:01:38.525Z,100643.00
2023-06-24T22:04:14.300Z,100655.00
2023-06-24T22:06:47.219Z,100664.00
2023-06-24T22:09:20.640Z,100662.00
2023-06-24T22:11:53.417Z,100661.00
2023-06-24T22:14:26.574Z,100660.00
2023-06-24T22:17:02.336Z,100651.00
2023-06-24T22:19:35.051Z,100661.00
2023-06-24T22:22:08.043Z,100655.00
2023-06-24T22:24:41.122Z,100654.00
2023-06-24T22:27:14.319Z,100655.00
2023-06-24T22:29:47.503Z,100647.00
2023-06-24T22:32:21.157Z,100649.00
2023-06-24T22:34:54.145Z,100639.00
2023-06-24T22:37:31.246Z,100632.00
2023-06-24T22:40:04.182Z,100639.00
2023-06-24T22:42:37.189Z,100624.00
2023-06-24T22:45:12.808Z,100634.00
2023-06-24T22:47:44.813Z,100632.00
2023-06-24T22:50:17.774Z,100623.00
2023-06-24T22:52:50.736Z,100627.00
2023-06-24T22:55:23.643Z,100623.00
2023-06-24T22:57:56.292Z,100618.00
2023-06-24T23:00:29.049Z,100619.00
2023-06-24T23:03:02.495Z,100616.00
2023-06-24T23:05:35.785Z,100625.00
2023-06-24T23:08:09.101Z,100613.00
2023-06-24T23:10:42.460Z,100613.00
2023-06-24T23:13:16.273Z,100612.00
2023-06-24T23:15:50.084Z,100615.00
2023-06-24T23:18:23.315Z,100616.00
2023-06-24T23:20:57.633Z,100622.00
2023-06-24T23:23:31.025Z,100618.00
2023-06-24T23:26:05.468Z,100619.00
2023-06-24T23:28:43.671Z,100613.00
2023-06-24T23:31:17.499Z,100615.00
2023-06-24T23:33:50.792Z,100611.00
2023-06-24T23:36:24.257Z,100604.00
2023-06-24T23:38:57.781Z,100601.00
2023-06-24T23:41:31.859Z,100604.00
2023-06-24T23:44:05.218Z,100589.00
2023-06-24T23:46:38.280Z,100591.00
2023-06-24T23:49:11.057Z,100594.00
2023-06-24T23:51:44.204Z,100592.00
2023-06-24T23:54:17.190Z,100579.00
2023-06-24T23:56:50.175Z,100582.00
2023-06-24T23:59:23.055Z,100578.00
